Time;durP1;ratioP1;P1;durP2;ratioP2;P2;SDS_P1;SDS_P2;PMS_P1;PMS_P2;Temp;Humidity;BMP_temperature;BMP_pressure;BME280_temperature;BME280_humidity;BME280_pressure;Samples;Min_cycle;Max_cycle;Signal;HPM_P1;HPM_P2
2022/05/13 00:01:42;;;;;;;5.77;5.27;;;;;;;12.21;73.08;100465.72;5072787;28;20182;-72
2022/05/13 00:04:07;;;;;;;5.43;5.10;;;;;;;12.23;73.06;100463.44;5071725;28;20170;-70
2022/05/13 00:06:33;;;;;;;5.70;5.30;;;;;;;12.23;72.96;100465.38;5072631;28;20179;-71
2022/05/13 00:08:59;;;;;;;6.03;5.50;;;;;;;12.23;73.06;100463.44;5072527;28;20520;-71
2022/05/13 00:11:24;;;;;;;6.43;5.83;;;;;;;12.24;72.96;100470.53;5072726;28;20178;-71
2022/05/13 00:13:49;;;;;;;7.17;6.67;;;;;;;12.28;72.83;100470.69;5072635;28;20645;-71
2022/05/13 00:16:15;;;;;;;7.10;6.50;;;;;;;12.03;74.22;100469.56;5072646;28;20206;-72
2022/05/13 00:18:40;;;;;;;7.20;6.60;;;;;;;11.85;75.23;100474.19;5072336;28;20178;-71
2022/05/13 00:21:06;;;;;;;7.17;6.33;;;;;;;11.70;76.28;100467.19;5072198;28;20619;-71
2022/05/13 00:23:32;;;;;;;7.17;6.47;;;;;;;11.46;78.22;100462.16;5072475;28;20198;-71
2022/05/13 00:25:58;;;;;;;7.20;6.50;;;;;;;11.38;79.34;100462.91;5072619;28;20253;-71
2022/05/13 00:28:23;;;;;;;6.27;5.77;;;;;;;11.25;80.14;100463.81;5072196;28;20261;-71
2022/05/13 00:30:50;;;;;;;8.10;6.53;;;;;;;10.94;82.47;100463.84;5072264;28;20216;-72
2022/05/13 00:33:17;;;;;;;7.20;6.60;;;;;;;10.71;84.24;100458.41;5072753;28;20206;-72
2022/05/13 00:35:42;;;;;;;7.50;6.90;;;;;;;10.49;85.81;100450.22;5072194;28;20220;-71
2022/05/13 00:38:08;;;;;;;7.30;6.70;;;;;;;10.36;86.72;100451.06;5071723;28;20214;-71
2022/05/13 00:40:35;;;;;;;7.23;6.63;;;;;;;10.33;87.37;100457.97;5072085;28;20654;-71
2022/05/13 00:43:04;;;;;;;6.53;5.97;;;;;;;10.24;88.52;100459.81;5071932;28;20175;-71
2022/05/13 00:45:33;;;;;;;7.17;6.57;;;;;;;10.10;89.61;100453.56;5072009;28;20182;-71
2022/05/13 00:47:59;;;;;;;7.07;6.47;;;;;;;10.02;90.62;100457.03;5071661;28;20186;-72
2022/05/13 00:50:27;;;;;;;7.40;6.80;;;;;;;9.97;91.35;100457.94;5070639;28;20600;-72
2022/05/13 00:52:53;;;;;;;7.00;6.50;;;;;;;9.92;91.75;100457.25;5071802;28;20653;-71
2022/05/13 00:55:27;;;;;;;8.03;7.23;;;;;;;9.98;91.91;100453.28;5071686;28;20177;-72
2022/05/13 00:57:53;;;;;;;8.77;7.70;;;;;;;10.11;91.74;100453.25;5071589;28;20670;-71
2022/05/13 01:00:19;;;;;;;8.33;7.77;;;;;;;10.24;90.57;100446.16;5071623;28;20175;-71
2022/05/13 01:02:45;;;;;;;8.03;7.43;;;;;;;10.17;90.57;100451.22;5071528;28;20178;-71
2022/05/13 01:05:14;;;;;;;7.93;7.33;;;;;;;10.05;90.75;100442.75;5071567;28;20179;-71
2022/05/13 01:07:40;;;;;;;8.00;7.30;;;;;;;9.98;91.67;100445.09;5071471;28;20178;-71
2022/05/13 01:10:09;;;;;;;8.87;8.13;;;;;;;9.94;92.32;100446.81;5071534;28;20208;-71
2022/05/13 01:12:37;;;;;;;8.50;7.80;;;;;;;9.97;92.35;100447.00;5071462;28;20175;-72
2022/05/13 01:15:07;;;;;;;7.63;7.07;;;;;;;9.95;92.48;100445.72;5071145;28;20174;-71
2022/05/13 01:20:24;;;;;;;7.13;6.50;;;;;;;9.69;94.51;100445.44;5071695;28;20177;-72
2022/05/13 01:22:57;;;;;;;8.10;7.43;;;;;;;9.64;94.90;100437.38;5071628;28;20240;-71
2022/05/13 01:25:25;;;;;;;8.23;7.57;;;;;;;9.63;95.35;100439.31;5071177;28;20150;-71
2022/05/13 01:27:52;;;;;;;8.73;7.93;;;;;;;9.56;96.03;100443.56;5071074;28;20656;-71
2022/05/13 01:30:30;;;;;;;9.07;8.37;;;;;;;9.52;96.11;100433.25;5071102;28;20666;-71
2022/05/13 01:32:56;;;;;;;8.30;7.53;;;;;;;9.48;97.14;100434.16;5071188;28;20463;-71
2022/05/13 01:35:22;;;;;;;8.70;8.03;;;;;;;9.53;97.94;100426.69;5070958;28;20209;-72
2022/05/13 01:37:48;;;;;;;8.63;7.87;;;;;;;9.60;97.65;100422.75;5070766;28;20206;-72
2022/05/13 01:40:14;;;;;;;8.10;7.50;;;;;;;9.65;96.70;100431.63;5069518;28;20179;-71
2022/05/13 01:42:39;;;;;;;8.83;8.10;;;;;;;9.71;96.25;100430.41;5070929;28;20511;-71
2022/05/13 01:45:07;;;;;;;8.33;7.53;;;;;;;9.79;96.38;100423.41;5070682;28;20206;-71
2022/05/13 01:47:34;;;;;;;7.60;6.90;;;;;;;9.90;95.49;100432.19;5070684;28;20170;-71
2022/05/13 01:50:01;;;;;;;9.90;9.10;;;;;;;10.11;93.66;100420.47;5070756;28;20170;-72
2022/05/13 01:52:27;;;;;;;8.87;8.07;;;;;;;10.29;91.78;100431.59;5070661;28;20660;-72
2022/05/13 01:54:52;;;;;;;8.43;7.60;;;;;;;10.42;90.46;100430.72;5070855;28;20174;-72
2022/05/13 01:57:19;;;;;;;8.33;7.63;;;;;;;10.53;88.78;100429.34;5070595;28;20281;-71
2022/05/13 01:59:44;;;;;;;8.37;7.70;;;;;;;10.60;88.26;100435.19;5070813;28;20175;-71
2022/05/13 02:02:09;;;;;;;8.60;7.80;;;;;;;10.70;87.22;100426.75;5070877;28;20257;-72
2022/05/13 02:04:35;;;;;;;9.40;8.43;;;;;;;10.81;86.53;100430.00;5070732;28;20554;-72
2022/05/13 02:07:00;;;;;;;8.30;7.57;;;;;;;10.93;85.64;100435.69;5067723;28;20185;-72
2022/05/13 02:09:25;;;;;;;7.73;7.10;;;;;;;11.06;84.50;100431.25;5070440;28;20468;-72
2022/05/13 02:11:51;;;;;;;8.43;7.73;;;;;;;11.10;83.97;100432.22;5070427;28;20205;-73
2022/05/13 02:14:18;;;;;;;7.53;6.93;;;;;;;11.21;82.72;100436.31;5070430;28;20202;-72
2022/05/13 02:16:43;;;;;;;8.73;7.90;;;;;;;11.21;82.36;100425.38;5070498;28;20198;-71
2022/05/13 02:19:10;;;;;;;7.50;6.90;;;;;;;11.25;81.42;100434.53;5070372;28;20538;-72
2022/05/13 02:21:36;;;;;;;7.67;6.93;;;;;;;11.32;80.88;100436.84;5070011;28;20232;-73
2022/05/13 02:24:02;;;;;;;8.63;7.93;;;;;;;11.36;80.36;100439.75;5070498;28;20174;-71
2022/05/13 02:26:27;;;;;;;7.20;5.47;;;;;;;11.39;80.18;100448.13;5074679;28;20581;-71
2022/05/13 02:28:52;;;;;;;8.20;7.30;;;;;;;11.38;79.40;100437.50;5086171;28;20570;-71
2022/05/13 02:31:18;;;;;;;6.73;6.13;;;;;;;11.41;79.21;100426.72;5076554;28;20261;-71
2022/05/13 02:33:44;;;;;;;6.60;6.07;;;;;;;11.40;79.32;100437.97;5075399;28;20187;-71
2022/05/13 02:36:11;;;;;;;7.10;6.50;;;;;;;11.32;79.05;100437.66;5074676;28;20267;-71
2022/05/13 02:38:37;;;;;;;7.27;6.60;;;;;;;11.22;79.76;100443.38;5074910;28;20227;-72
2022/05/13 02:41:12;;;;;;;7.40;6.70;;;;;;;11.19;80.08;100432.28;5074529;28;20594;-71
2022/05/13 02:43:49;;;;;;;6.73;6.13;;;;;;;11.17;80.30;100429.06;5074232;28;20185;-72
2022/05/13 02:46:22;;;;;;;6.93;6.37;;;;;;;11.07;80.06;100430.13;5074459;28;20170;-71
2022/05/13 02:48:47;;;;;;;7.27;6.67;;;;;;;11.01;80.34;100432.22;5073037;28;20248;-72
2022/05/13 02:51:13;;;;;;;6.57;5.87;;;;;;;10.95;80.25;100435.38;5074281;28;20627;-72
2022/05/13 02:53:39;;;;;;;7.73;6.43;;;;;;;10.95;80.63;100438.13;5074275;28;20183;-72
2022/05/13 02:56:07;;;;;;;7.70;6.33;;;;;;;10.86;80.87;100437.28;5074100;28;20244;-71
2022/05/13 02:58:32;;;;;;;7.40;6.67;;;;;;;10.86;80.93;100437.28;5073792;28;20263;-71
2022/05/13 03:00:58;;;;;;;6.57;5.97;;;;;;;10.77;81.12;100436.41;5074169;28;20261;-71
2022/05/13 03:03:23;;;;;;;5.43;4.47;;;;;;;10.74;81.55;100440.59;5074058;28;20511;-71
2022/05/13 03:05:48;;;;;;;6.87;6.17;;;;;;;10.78;81.18;100427.91;5074070;28;20179;-71
2022/05/13 03:08:14;;;;;;;6.23;5.70;;;;;;;10.77;81.48;100441.88;5073865;28;20178;-71
2022/05/13 03:10:39;;;;;;;6.53;5.93;;;;;;;10.73;81.46;100438.97;5074010;28;20177;-71
2022/05/13 03:13:07;;;;;;;6.43;5.93;;;;;;;10.75;81.35;100436.72;5073788;28;20178;-71
2022/05/13 03:15:33;;;;;;;5.73;5.30;;;;;;;10.73;81.49;100428.03;5073885;28;20516;-72
2022/05/13 03:17:58;;;;;;;6.63;6.13;;;;;;;10.73;81.67;100431.56;5073631;28;20677;-71
2022/05/13 03:20:25;;;;;;;5.53;4.97;;;;;;;10.78;81.53;100427.09;5072568;28;20177;-70
2022/05/13 03:22:51;;;;;;;6.60;6.10;;;;;;;10.85;81.16;100425.53;5073461;28;20256;-72
2022/05/13 03:25:19;;;;;;;7.27;6.53;;;;;;;10.86;81.48;100421.69;5074047;28;20253;-71
2022/05/13 03:27:45;;;;;;;4.67;4.37;;;;;;;10.84;81.93;100428.56;5073433;28;20174;-70
2022/05/13 03:30:13;;;;;;;6.13;5.60;;;;;;;10.92;81.80;100422.34;5072251;28;20621;-71
2022/05/13 03:32:38;;;;;;;6.70;6.10;;;;;;;10.97;81.13;100427.66;5073582;28;20245;-72
2022/05/13 03:35:06;;;;;;;7.30;6.60;;;;;;;11.01;81.30;100425.94;5073494;28;20174;-71
2022/05/13 03:37:32;;;;;;;7.37;6.70;;;;;;;11.06;80.97;100434.00;5073030;28;20198;-72
2022/05/13 03:39:57;;;;;;;6.83;6.23;;;;;;;11.16;80.13;100424.72;5073475;28;20236;-71
2022/05/13 03:42:22;;;;;;;7.00;6.47;;;;;;;11.25;79.83;100429.06;5073418;28;20232;-71
2022/05/13 03:44:49;;;;;;;10.67;7.20;;;;;;;11.30;80.07;100425.41;5073376;28;20582;-72
2022/05/13 03:47:15;;;;;;;7.80;6.80;;;;;;;11.34;80.11;100420.91;5073180;28;20209;-71
2022/05/13 03:49:40;;;;;;;7.63;6.93;;;;;;;11.35;79.88;100427.19;5073261;28;20210;-71
2022/05/13 03:52:06;;;;;;;8.13;7.43;;;;;;;11.36;80.32;100431.53;5073215;28;20170;-72
2022/05/13 03:54:31;;;;;;;7.83;7.23;;;;;;;11.34;80.09;100426.38;5071633;28;20210;-72
2022/05/13 03:56:56;;;;;;;7.50;6.80;;;;;;;11.29;80.54;100430.09;5073020;28;20291;-72
2022/05/13 03:59:22;;;;;;;7.03;6.53;;;;;;;11.22;81.41;100426.97;5073190;28;20214;-73
2022/05/13 04:01:47;;;;;;;6.37;5.80;;;;;;;11.18;81.42;100426.00;5073090;28;20220;-71
2022/05/13 04:04:12;;;;;;;10.03;8.17;;;;;;;11.16;82.19;100424.72;5072875;28;20650;-72
2022/05/13 04:09:21;;;;;;;7.00;5.90;;;;;;;11.16;82.53;100419.25;5073029;28;20177;-71
2022/05/13 04:16:04;;;;;;;8.43;7.63;;;;;;;11.19;83.09;100416.69;5072815;28;20257;-72
2022/05/13 04:17:16;;;;;;;7.37;6.77;;;;;;;11.18;83.36;100415.06;5072460;28;20209;-71
2022/05/13 04:19:41;;;;;;;8.60;7.87;;;;;;;11.19;83.68;100424.88;5072649;28;20174;-71
2022/05/13 04:22:13;;;;;;;7.83;7.13;;;;;;;11.22;83.20;100424.25;5072763;28;20170;-71
2022/05/13 04:24:38;;;;;;;8.83;8.03;;;;;;;11.23;83.32;100425.06;5072749;28;20181;-72
2022/05/13 04:27:04;;;;;;;8.63;7.93;;;;;;;11.22;83.88;100426.97;5072452;28;20182;-72
2022/05/13 04:29:30;;;;;;;6.90;6.30;;;;;;;11.23;83.58;100427.78;5072366;28;20212;-72
2022/05/13 04:31:55;;;;;;;8.20;7.03;;;;;;;11.25;82.94;100437.28;5072518;28;20179;-71
2022/05/13 04:34:20;;;;;;;6.30;5.80;;;;;;;11.25;83.01;100434.53;5072521;28;20197;-72
2022/05/13 04:36:46;;;;;;;9.03;6.83;;;;;;;11.27;82.55;100442.44;5072377;28;20692;-71
2022/05/13 04:39:13;;;;;;;9.17;8.27;;;;;;;11.30;82.99;100437.16;5072088;28;20163;-70
2022/05/13 04:44:23;;;;;;;7.50;6.80;;;;;;;11.38;81.98;100438.28;5072335;28;20193;-72
2022/05/13 04:46:49;;;;;;;6.47;5.70;;;;;;;11.39;81.95;100436.38;5072023;28;20171;-72
2022/05/13 04:49:14;;;;;;;7.40;6.70;;;;;;;11.42;81.83;100441.19;5071570;28;20601;-71
2022/05/13 04:51:40;;;;;;;8.23;7.53;;;;;;;11.43;81.97;100443.66;5072079;28;20178;-72
2022/05/13 04:54:06;;;;;;;7.83;7.13;;;;;;;11.47;81.78;100441.88;5072002;28;20622;-71
2022/05/13 04:56:32;;;;;;;6.90;6.23;;;;;;;11.52;81.58;100440.91;5071700;28;20195;-71
2022/05/13 04:58:58;;;;;;;6.87;6.07;;;;;;;11.59;81.11;100455.75;5071814;28;20560;-72
2022/05/13 05:01:25;;;;;;;7.67;4.87;;;;;;;11.68;80.59;100453.03;5071945;28;20159;-72
2022/05/13 05:03:51;;;;;;;7.23;5.67;;;;;;;11.72;80.37;100451.28;5071779;28;20185;-71
2022/05/13 05:06:18;;;;;;;7.40;6.80;;;;;;;11.77;79.42;100448.38;5071892;28;20170;-72
2022/05/13 05:08:45;;;;;;;5.30;4.90;;;;;;;11.82;79.09;100452.94;5071888;28;20232;-71
2022/05/13 05:11:12;;;;;;;5.63;5.23;;;;;;;11.89;77.93;100454.09;5071656;28;20174;-71
2022/05/13 05:13:44;;;;;;;5.57;5.07;;;;;;;11.92;78.12;100458.09;5071699;28;20178;-72
2022/05/13 05:16:10;;;;;;;5.70;4.60;;;;;;;11.94;79.01;100460.53;5071750;28;20457;-72
2022/05/13 05:18:38;;;;;;;5.77;5.17;;;;;;;11.98;77.96;100464.22;5071658;28;20200;-72
2022/05/13 05:21:05;;;;;;;5.47;5.07;;;;;;;12.04;76.93;100469.25;5071161;28;20182;-72
2022/05/13 05:23:33;;;;;;;5.20;3.50;;;;;;;12.11;76.27;100460.53;5071253;28;20272;-73
2022/05/13 05:25:59;;;;;;;5.47;4.30;;;;;;;12.17;76.50;100456.53;5071381;28;20634;-72
2022/05/13 05:28:26;;;;;;;5.50;5.00;;;;;;;12.19;76.22;100463.28;5071296;28;20646;-71
2022/05/13 05:30:51;;;;;;;6.20;5.60;;;;;;;12.18;76.12;100461.69;5071598;28;20181;-71
2022/05/13 05:33:17;;;;;;;9.20;5.43;;;;;;;12.25;76.91;100463.13;5071069;28;20174;-71
2022/05/13 05:35:42;;;;;;;5.77;5.23;;;;;;;12.30;76.90;100463.78;5070998;28;20540;-71
2022/05/13 05:38:08;;;;;;;6.37;5.37;;;;;;;12.29;76.48;100472.31;5070989;28;20214;-71
2022/05/13 05:40:35;;;;;;;8.10;5.63;;;;;;;12.35;76.64;100471.84;5069773;28;20178;-72
2022/05/13 05:43:05;;;;;;;5.93;4.33;;;;;;;12.39;75.50;100478.28;5069750;28;20183;-72
2022/05/13 05:45:31;;;;;;;5.33;2.60;;;;;;;12.36;75.21;100483.59;5071058;28;20178;-72
2022/05/13 05:47:56;;;;;;;4.33;3.43;;;;;;;12.37;75.28;100501.66;5071071;28;20576;-72
2022/05/13 05:50:22;;;;;;;3.17;2.07;;;;;;;12.34;74.85;100500.38;5071062;28;20206;-71
2022/05/13 05:52:47;;;;;;;5.53;4.37;;;;;;;12.35;76.56;100514.88;5070866;28;20571;-71
2022/05/13 05:58:01;;;;;;;4.70;4.00;;;;;;;12.28;77.38;100520.00;5070935;28;20209;-72
2022/05/13 06:00:28;;;;;;;5.63;5.13;;;;;;;12.26;77.39;100525.81;5070051;28;20186;-72
2022/05/13 06:02:54;;;;;;;5.20;4.03;;;;;;;12.24;78.60;100530.81;5070808;28;20183;-71
2022/05/13 06:05:20;;;;;;;6.00;5.50;;;;;;;12.25;78.48;100523.38;5070884;28;20220;-71
2022/05/13 06:07:46;;;;;;;5.30;4.80;;;;;;;12.31;78.91;100531.16;5070765;28;20309;-71
2022/05/13 06:10:12;;;;;;;5.57;5.07;;;;;;;12.35;79.02;100534.84;5070925;28;20174;-72
2022/05/13 06:12:38;;;;;;;5.03;4.60;;;;;;;12.44;78.88;100538.41;5070764;28;20170;-73
2022/05/13 06:15:03;;;;;;;5.50;5.00;;;;;;;12.39;78.27;100529.53;5070714;28;20818;-71
2022/05/13 06:17:29;;;;;;;4.70;4.23;;;;;;;12.41;77.10;100543.72;5050293;28;20199;-72
2022/05/13 06:19:54;;;;;;;4.97;4.30;;;;;;;12.40;76.97;100540.16;5050609;28;20179;-71
2022/05/13 06:22:19;;;;;;;4.90;4.50;;;;;;;12.37;76.60;100546.28;5050402;28;20175;-71
2022/05/13 06:24:45;;;;;;;6.13;3.37;;;;;;;12.34;76.89;100546.94;5050729;28;20550;-73
2022/05/13 06:27:10;;;;;;;9.60;4.40;;;;;;;12.35;77.24;100556.78;5050511;28;20773;-71
2022/05/13 06:29:36;;;;;;;9.50;3.80;;;;;;;12.34;76.13;100549.69;5050790;28;20190;-71
2022/05/13 06:32:02;;;;;;;2.13;1.97;;;;;;;12.40;74.39;100559.34;5050963;28;20180;-71
2022/05/13 06:34:28;;;;;;;2.37;1.97;;;;;;;12.45;72.35;100558.41;5050575;28;20178;-72
2022/05/13 06:36:53;;;;;;;2.33;2.03;;;;;;;12.45;71.89;100553.72;5050257;28;20245;-70
2022/05/13 06:39:19;;;;;;;2.80;2.60;;;;;;;12.47;72.65;100556.16;5050005;28;20223;-71
2022/05/13 06:41:44;;;;;;;2.23;2.13;;;;;;;12.46;72.75;100554.53;5065922;28;20174;-72
2022/05/13 06:44:10;;;;;;;3.37;2.47;;;;;;;12.42;72.63;100559.81;5070109;28;20389;-72
2022/05/13 06:46:39;;;;;;;6.70;1.40;;;;;;;12.40;71.82;100561.28;5069201;28;20277;-70
2022/05/13 06:49:06;;;;;;;3.20;2.53;;;;;;;12.42;73.02;100554.34;5069162;28;20212;-70
2022/05/13 06:51:33;;;;;;;4.53;3.37;;;;;;;12.47;73.38;100562.44;5070659;28;20198;-72
2022/05/13 06:54:03;;;;;;;6.10;3.00;;;;;;;12.49;73.50;100565.66;5070384;28;20180;-71
2022/05/13 06:56:34;;;;;;;3.53;2.97;;;;;;;12.50;73.05;100566.47;5065920;28;20201;-75
2022/05/13 06:59:04;;;;;;;4.90;2.20;;;;;;;12.54;72.45;100556.47;5054921;28;20186;-70
2022/05/13 07:01:30;;;;;;;2.70;2.17;;;;;;;12.54;72.26;100559.19;5070770;28;20182;-72
2022/05/13 07:03:56;;;;;;;4.87;3.20;;;;;;;12.63;72.69;100554.53;5070511;28;20183;-70
2022/05/13 07:06:23;;;;;;;4.43;3.40;;;;;;;12.75;73.83;100541.00;5070400;28;20171;-70
2022/05/13 07:08:52;;;;;;;4.40;3.20;;;;;;;12.80;72.90;100531.78;5068528;28;20190;-70
2022/05/13 07:11:19;;;;;;;3.50;2.43;;;;;;;12.85;73.55;100534.34;5070471;28;20574;-70
2022/05/13 07:13:44;;;;;;;5.93;1.67;;;;;;;12.96;73.52;100541.13;5073553;28;20537;-70
2022/05/13 07:16:10;;;;;;;2.30;1.67;;;;;;;12.93;73.22;100544.53;5080224;28;20229;-70
2022/05/13 07:18:36;;;;;;;3.50;2.40;;;;;;;13.01;73.19;100538.19;5082458;28;20180;-70
2022/05/13 07:21:02;;;;;;;2.07;1.90;;;;;;;13.06;72.97;100540.78;5074591;28;20182;-70
2022/05/13 07:23:29;;;;;;;2.33;2.03;;;;;;;13.10;73.57;100535.44;5074088;28;20672;-70
2022/05/13 07:25:55;;;;;;;8.67;1.97;;;;;;;13.17;73.84;100538.53;5073707;28;20583;-71
2022/05/13 07:28:20;;;;;;;5.13;2.87;;;;;;;13.31;72.90;100541.09;5073680;28;20220;-70
2022/05/13 07:30:47;;;;;;;3.43;2.37;;;;;;;13.30;72.32;100539.47;5073509;28;20174;-70
2022/05/13 07:33:13;;;;;;;2.67;2.00;;;;;;;13.36;72.93;100533.47;5073723;28;20261;-70
2022/05/13 07:35:38;;;;;;;2.47;1.23;;;;;;;13.28;71.96;100537.03;5073384;28;20253;-70
2022/05/13 07:38:06;;;;;;;4.30;2.23;;;;;;;13.38;72.52;100550.41;5073283;28;20202;-70
2022/05/13 07:43:16;;;;;;;4.47;1.77;;;;;;;13.89;71.15;100540.38;5073231;28;20192;-71
2022/05/13 07:45:41;;;;;;;3.30;2.40;;;;;;;13.94;70.64;100540.19;5073361;28;20175;-71
2022/05/13 07:48:07;;;;;;;3.47;1.20;;;;;;;13.95;70.40;100549.22;5072963;28;20206;-71
2022/05/13 07:50:32;;;;;;;2.30;1.40;;;;;;;13.90;70.47;100541.19;5073347;28;20261;-70
2022/05/13 07:52:58;;;;;;;17.60;1.93;;;;;;;13.88;69.30;100538.75;5073171;28;20175;-70
2022/05/13 07:55:23;;;;;;;2.27;1.57;;;;;;;13.91;69.02;100548.28;5073124;28;20186;-70
2022/05/13 07:57:49;;;;;;;7.17;1.83;;;;;;;13.86;68.55;100535.53;5072367;28;20213;-70
2022/05/13 08:00:25;;;;;;;1.80;1.70;;;;;;;13.89;67.83;100545.06;5071645;28;20247;-70
2022/05/13 08:03:03;;;;;;;0.73;0.73;;;;;;;13.90;66.61;100542.00;5072549;28;20174;-70
2022/05/13 08:05:31;;;;;;;4.60;1.70;;;;;;;14.10;68.01;100545.09;5072706;28;20257;-71
2022/05/13 08:08:02;;;;;;;2.43;1.60;;;;;;;14.19;66.65;100546.66;5072180;28;20202;-71
2022/05/13 08:10:27;;;;;;;1.50;0.97;;;;;;;14.28;67.13;100550.16;5072603;28;20179;-71
2022/05/13 08:12:53;;;;;;;1.43;0.90;;;;;;;14.18;67.06;100545.06;5072471;28;20634;-70
2022/05/13 08:15:18;;;;;;;1.03;0.53;;;;;;;13.96;67.38;100548.09;5072274;28;20220;-70
2022/05/13 08:17:43;;;;;;;3.33;1.60;;;;;;;13.77;67.80;100542.22;5071925;28;20210;-71
2022/05/13 08:20:10;;;;;;;3.30;1.60;;;;;;;13.79;67.23;100545.44;5072251;28;20174;-71
2022/05/13 08:22:35;;;;;;;1.53;1.23;;;;;;;14.01;67.30;100561.63;5071715;28;20175;-71
2022/05/13 08:25:01;;;;;;;21.13;1.13;;;;;;;13.99;65.39;100566.66;5071274;28;20675;-71
2022/05/13 08:27:26;;;;;;;1.13;0.97;;;;;;;14.15;65.26;100553.94;5071805;28;20693;-70
2022/05/13 08:29:51;;;;;;;3.23;1.63;;;;;;;14.29;65.51;100565.50;5072001;28;20182;-71
2022/05/13 08:32:17;;;;;;;3.33;1.10;;;;;;;14.39;66.42;100569.00;5072082;28;20184;-70
2022/05/13 08:34:42;;;;;;;5.33;1.50;;;;;;;14.27;65.23;100587.00;5072074;28;20258;-70
2022/05/13 08:37:07;;;;;;;3.77;1.67;;;;;;;14.29;64.97;100560.00;5071706;28;20260;-71
2022/05/13 08:39:33;;;;;;;4.70;1.07;;;;;;;14.28;64.28;100574.06;5071760;28;20186;-70
2022/05/13 08:42:07;;;;;;;1.50;1.17;;;;;;;14.23;64.76;100564.09;5071771;28;20194;-70
2022/05/13 08:44:33;;;;;;;2.43;1.27;;;;;;;14.22;65.58;100573.47;5071688;28;20186;-71
2022/05/13 08:47:19;;;;;;;2.33;1.90;;;;;;;14.19;66.08;100576.09;5071595;28;20182;-70
2022/05/13 08:49:52;;;;;;;1.30;1.20;;;;;;;14.40;66.96;100587.09;5072100;28;20269;-71
2022/05/13 08:55:26;;;;;;;9.77;1.73;;;;;;;14.43;65.83;100578.19;5071647;28;20181;-71
2022/05/13 08:57:55;;;;;;;2.87;2.37;;;;;;;14.40;66.76;100587.91;5071314;28;20206;-70
2022/05/13 09:00:50;;;;;;;2.10;1.77;;;;;;;14.18;66.88;100586.28;5071354;28;20639;-71
2022/05/13 09:03:40;;;;;;;6.07;2.67;;;;;;;13.93;67.50;100589.97;5062689;28;20190;-71
2022/05/13 09:06:16;;;;;;;0.63;0.57;;;;;;;13.82;68.01;100594.19;5070211;28;20182;-70
2022/05/13 09:08:42;;;;;;;2.93;2.63;;;;;;;13.84;68.66;100583.69;5071155;28;20177;-71
2022/05/13 09:11:18;;;;;;;4.63;2.87;;;;;;;13.97;69.15;100585.41;5071127;28;20672;-70
2022/05/13 09:14:04;;;;;;;2.00;1.60;;;;;;;14.02;68.69;100592.66;5071159;28;20181;-70
2022/05/13 09:16:44;;;;;;;4.47;3.97;;;;;;;14.13;69.40;100591.94;5071156;28;20567;-71
2022/05/13 09:19:23;;;;;;;4.97;3.20;;;;;;;14.18;68.41;100599.22;5071052;28;20178;-70
2022/05/13 09:21:48;;;;;;;4.03;2.53;;;;;;;14.15;67.90;100597.09;5070651;28;20170;-71
2022/05/13 09:24:13;;;;;;;2.43;2.23;;;;;;;14.09;67.59;100599.25;5070996;28;20239;-70
2022/05/13 09:26:39;;;;;;;2.33;2.10;;;;;;;14.17;68.46;100597.56;5069554;28;20207;-70
2022/05/13 09:29:18;;;;;;;6.57;3.20;;;;;;;14.21;67.03;100596.59;5071029;28;20505;-71
2022/05/13 09:31:47;;;;;;;3.00;2.70;;;;;;;14.25;67.67;100600.28;5070860;28;20691;-70
2022/05/13 09:34:26;;;;;;;1.60;1.50;;;;;;;14.25;67.38;100596.75;5070951;28;20392;-71
2022/05/13 09:36:51;;;;;;;2.57;2.37;;;;;;;14.26;67.62;100581.84;5070648;28;20194;-71
2022/05/13 09:39:21;;;;;;;4.37;3.30;;;;;;;14.29;67.82;100590.22;5070636;28;20251;-70
2022/05/13 09:41:48;;;;;;;6.50;2.47;;;;;;;14.63;66.77;100582.13;5070722;28;20257;-71
2022/05/13 09:44:26;;;;;;;2.70;2.40;;;;;;;14.80;65.90;100588.28;5070583;28;20367;-70
2022/05/13 09:47:07;;;;;;;7.23;2.27;;;;;;;15.16;65.59;100589.59;5070743;28;20618;-71
2022/05/13 09:49:38;;;;;;;4.10;3.23;;;;;;;15.23;66.38;100594.56;5067414;28;20217;-71
2022/05/13 09:52:23;;;;;;;2.10;1.93;;;;;;;15.37;65.58;100586.81;5061220;28;20273;-71
2022/05/13 09:54:48;;;;;;;5.73;3.40;;;;;;;15.44;63.40;100587.03;5067319;28;20510;-71
2022/05/13 09:57:30;;;;;;;2.90;2.30;;;;;;;15.62;63.13;100587.66;5070309;28;20212;-70
2022/05/13 10:00:05;;;;;;;4.77;2.90;;;;;;;15.51;62.80;100575.47;5071099;28;20188;-74
2022/05/13 10:02:36;;;;;;;3.13;1.97;;;;;;;15.46;61.92;100569.03;5069572;28;20582;-71
2022/05/13 10:05:22;;;;;;;2.87;2.67;;;;;;;15.30;62.51;100573.56;5070718;28;20174;-71
2022/05/13 10:07:58;;;;;;;0.93;0.93;;;;;;;15.45;63.31;100570.16;5070324;28;20642;-71
2022/05/13 10:16:19;;;;;;;4.10;2.47;;;;;;;16.04;59.83;100569.78;5070847;28;20235;-70
2022/05/13 10:18:57;;;;;;;6.37;2.03;;;;;;;16.18;58.20;100574.97;5070452;28;20583;-71
2022/05/13 10:21:29;;;;;;;1.40;1.30;;;;;;;15.81;59.80;100587.94;5070239;28;20174;-71
2022/05/13 10:24:21;;;;;;;3.83;2.37;;;;;;;15.85;60.84;100591.63;5070481;28;20622;-71
2022/05/13 10:26:49;;;;;;;2.13;2.00;;;;;;;15.61;61.20;100580.56;5070741;28;20171;-71
2022/05/13 10:29:39;;;;;;;2.47;2.20;;;;;;;15.67;60.88;100582.75;5070265;28;20257;-71
2022/05/13 10:32:18;;;;;;;1.90;1.30;;;;;;;15.74;60.94;100594.00;5070378;28;20647;-71
2022/05/13 10:34:53;;;;;;;2.70;1.60;;;;;;;15.79;59.15;100593.00;5070240;28;20170;-71
2022/05/13 10:37:50;;;;;;;0.57;0.57;;;;;;;15.68;57.79;100581.63;5070209;28;20194;-71
2022/05/13 10:40:19;;;;;;;4.23;1.50;;;;;;;15.80;58.91;100588.28;5070357;28;20205;-71
2022/05/13 10:42:54;;;;;;;2.50;1.73;;;;;;;16.00;59.53;100585.44;5070342;28;20167;-71
2022/05/13 10:45:24;;;;;;;2.53;1.53;;;;;;;16.11;58.69;100590.50;5070260;28;20630;-71
2022/05/13 10:47:56;;;;;;;1.03;0.93;;;;;;;16.01;56.99;100588.97;5072200;28;20258;-71
2022/05/13 10:50:25;;;;;;;1.60;1.50;;;;;;;15.96;58.22;100589.22;5074474;28;20215;-71
2022/05/13 10:53:05;;;;;;;1.10;1.00;;;;;;;15.94;57.82;100586.81;5074161;28;20228;-71
2022/05/13 10:56:07;;;;;;;5.33;1.17;;;;;;;16.03;56.99;100595.75;5074176;28;20170;-71
2022/05/13 10:58:39;;;;;;;1.13;0.90;;;;;;;15.90;56.81;100598.84;5073669;28;20202;-71
2022/05/13 11:01:32;;;;;;;1.77;1.57;;;;;;;15.90;58.28;100594.13;5074148;28;20182;-71
2022/05/13 11:04:10;;;;;;;4.40;0.90;;;;;;;15.83;57.75;100606.88;5073915;28;20432;-71
2022/05/13 11:06:54;;;;;;;1.50;1.20;;;;;;;15.72;58.30;100612.03;5066263;28;20181;-71
2022/05/13 11:09:47;;;;;;;1.70;1.33;;;;;;;15.52;57.82;100608.19;5065432;28;20189;-71
2022/05/13 11:12:42;;;;;;;1.97;0.80;;;;;;;15.43;58.48;100605.50;5073254;28;20183;-71
2022/05/13 11:15:13;;;;;;;0.97;0.60;;;;;;;15.56;58.32;100605.53;5073559;28;20206;-71
2022/05/13 11:18:02;;;;;;;1.43;1.20;;;;;;;15.71;58.68;100607.66;5073184;28;20437;-71
2022/05/13 11:20:28;;;;;;;1.80;1.00;;;;;;;15.80;57.24;100608.38;5073499;28;20265;-71
2022/05/13 11:23:30;;;;;;;1.27;0.77;;;;;;;15.82;57.41;100614.34;5073183;28;20618;-71
2022/05/13 11:26:15;;;;;;;1.43;0.70;;;;;;;15.81;56.56;100615.50;5072605;28;20725;-71
2022/05/13 11:28:51;;;;;;;0.73;0.57;;;;;;;15.75;56.06;100614.09;5073375;28;20170;-71
2022/05/13 11:31:44;;;;;;;2.83;0.90;;;;;;;15.89;56.99;100624.78;5073219;28;20542;-71
2022/05/13 11:34:29;;;;;;;1.17;0.80;;;;;;;16.01;56.65;100617.34;5073300;28;20223;-71
2022/05/13 11:36:58;;;;;;;2.53;1.07;;;;;;;16.43;56.34;100633.66;5073048;28;20666;-71
2022/05/13 11:40:01;;;;;;;0.57;0.57;;;;;;;16.48;56.00;100627.91;5073210;28;20200;-71
2022/05/13 11:43:19;;;;;;;0.40;0.40;;;;;;;16.25;55.58;100624.03;5073041;28;20205;-71
2022/05/13 11:45:53;;;;;;;1.07;0.40;;;;;;;15.96;56.14;100623.09;5061081;28;20194;-71
2022/05/13 11:48:42;;;;;;;2.13;1.10;;;;;;;15.93;57.45;100623.78;5072639;28;20192;-71
2022/05/13 11:51:24;;;;;;;2.53;1.90;;;;;;;16.14;57.48;100633.91;5073140;28;20166;-71
2022/05/13 11:54:01;;;;;;;0.90;0.90;;;;;;;16.08;56.98;100638.03;5072935;28;20178;-71
2022/05/13 11:56:26;;;;;;;1.40;1.03;;;;;;;15.93;57.29;100621.03;5072831;28;20177;-71
2022/05/13 11:59:15;;;;;;;1.67;1.13;;;;;;;15.77;58.17;100625.59;5071263;28;20171;-71
2022/05/13 12:01:44;;;;;;;1.23;0.63;;;;;;;15.68;56.85;100627.63;5072222;28;20740;-73
2022/05/13 12:04:16;;;;;;;0.53;0.43;;;;;;;15.63;57.78;100625.13;5072765;28;20202;-71